Time;durP1;ratioP1;P1;durP2;ratioP2;P2;SDS_P1;SDS_P2;PMS_P1;PMS_P2;Temp;Humidity;BMP_temperature;BMP_pressure;BME280_temperature;BME280_humidity;BME280_pressure;Samples;Min_cycle;Max_cycle;Signal;HPM_P1;HPM_P2
2022/01/22 00:00:25;;;;;;;87.13;52.57;;;-0.50;99.90;;;;;;5096255;28;20121;-62
2022/01/22 00:02:52;;;;;;;84.43;51.97;;;-0.40;99.90;;;;;;5076027;28;20123;-63
2022/01/22 00:05:20;;;;;;;81.85;51.15;;;-0.40;99.90;;;;;;5093845;28;20039;-63
2022/01/22 00:07:47;;;;;;;79.20;50.40;;;-0.30;99.90;;;;;;5075659;28;20133;-62
2022/01/22 00:10:15;;;;;;;79.05;46.97;;;0.00;99.90;;;;;;5075874;28;20152;-62
2022/01/22 00:15:28;;;;;;;76.03;46.13;;;-0.10;99.90;;;;;;5094392;28;20084;-63
2022/01/22 00:17:56;;;;;;;73.72;45.45;;;-0.10;99.90;;;;;;5093971;28;20051;-63
2022/01/22 00:20:24;;;;;;;70.05;43.35;;;-0.10;99.90;;;;;;5093977;28;20035;-63
2022/01/22 00:22:51;;;;;;;71.00;42.58;;;-0.10;99.90;;;;;;5093896;28;20032;-63
2022/01/22 00:25:19;;;;;;;76.40;44.60;;;-0.20;99.90;;;;;;5075649;28;20036;-62
2022/01/22 00:27:47;;;;;;;74.55;43.65;;;-0.20;99.90;;;;;;5075562;28;20024;-62
2022/01/22 00:30:17;;;;;;;65.43;43.63;;;-0.40;99.90;;;;;;5075125;28;20378;-63
2022/01/22 00:32:43;;;;;;;80.53;45.80;;;-0.60;99.90;;;;;;5090798;28;20036;-63
2022/01/22 00:35:10;;;;;;;80.63;46.10;;;-0.70;99.90;;;;;;5088918;28;20037;-63
2022/01/22 00:37:38;;;;;;;72.27;45.73;;;-0.90;99.90;;;;;;5075056;28;20113;-63
2022/01/22 00:40:05;;;;;;;76.57;46.17;;;-0.90;99.90;;;;;;5074794;28;20457;-64
2022/01/22 00:42:34;;;;;;;62.80;39.67;;;-1.10;99.90;;;;;;5092632;28;20039;-62
2022/01/22 00:45:01;;;;;;;61.17;37.22;;;-0.90;99.90;;;;;;5093032;28;20032;-62
2022/01/22 00:47:27;;;;;;;60.23;39.10;;;-0.70;99.90;;;;;;5093511;28;20600;-62
2022/01/22 00:49:53;;;;;;;64.73;40.47;;;-0.90;99.90;;;;;;5093277;28;20086;-62
2022/01/22 00:52:20;;;;;;;61.07;38.80;;;-1.10;99.90;;;;;;5092832;28;20379;-63
2022/01/22 00:54:46;;;;;;;64.47;39.03;;;-1.20;99.90;;;;;;5093368;28;20032;-63
2022/01/22 00:57:12;;;;;;;65.67;40.93;;;-1.30;99.90;;;;;;5093340;28;20065;-64
2022/01/22 00:59:38;;;;;;;67.60;40.93;;;-1.50;99.90;;;;;;5075061;28;20036;-63
2022/01/22 01:02:05;;;;;;;68.50;40.47;;;-1.60;99.90;;;;;;5092696;28;20048;-64
2022/01/22 01:04:36;;;;;;;75.33;43.30;;;-1.60;99.90;;;;;;5074565;28;20039;-64
2022/01/22 01:07:03;;;;;;;75.77;45.13;;;-1.60;99.90;;;;;;5075002;28;20120;-64
2022/01/22 01:09:29;;;;;;;81.03;47.33;;;-1.80;99.90;;;;;;5074766;28;20028;-62
2022/01/22 01:12:01;;;;;;;70.70;44.10;;;-1.90;99.90;;;;;;5074472;28;20459;-62
2022/01/22 01:14:35;;;;;;;72.27;45.53;;;-2.00;99.90;;;;;;5074792;28;20097;-63
2022/01/22 01:34:10;;;;;;;95.37;47.73;;;-2.20;99.90;;;;;;5072842;28;20043;-62
2022/01/22 01:36:13;;;;;;;77.30;44.77;;;-2.20;99.90;;;;;;5079767;28;20036;-62
2022/01/22 01:38:43;;;;;;;81.30;45.03;;;-2.30;99.90;;;;;;5092882;28;20028;-62
2022/01/22 01:41:20;;;;;;;69.23;42.23;;;-2.40;99.90;;;;;;5092739;28;20028;-62
2022/01/22 01:43:47;;;;;;;80.90;45.90;;;-2.50;99.90;;;;;;5074193;28;20495;-62
2022/01/22 01:46:13;;;;;;;88.83;45.17;;;-2.50;99.90;;;;;;5092694;28;20032;-62
2022/01/22 01:48:42;;;;;;;89.40;45.70;;;-2.50;99.90;;;;;;5092785;28;20028;-62
2022/01/22 01:51:08;;;;;;;80.40;45.13;;;-2.60;99.90;;;;;;5092772;28;20028;-62
2022/01/22 01:58:57;;;;;;;71.80;37.20;;;-2.70;99.90;;;;;;5092490;28;20540;-62
2022/01/22 02:01:23;;;;;;;75.37;38.37;;;-2.70;99.90;;;;;;5092410;28;20513;-62
2022/01/22 02:03:49;;;;;;;67.27;37.83;;;-2.60;99.90;;;;;;5096205;28;20082;-61
2022/01/22 02:06:16;;;;;;;84.70;41.47;;;-2.70;99.90;;;;;;5096692;28;20507;-61
2022/01/22 02:08:42;;;;;;;85.47;44.87;;;-2.80;99.90;;;;;;5095612;28;20099;-62
2022/01/22 02:11:10;;;;;;;87.70;42.20;;;-2.80;99.90;;;;;;5096424;28;20051;-62
2022/01/22 02:13:57;;;;;;;83.40;41.33;;;-2.80;99.90;;;;;;5076169;28;20033;-62
2022/01/22 02:24:46;;;;;;;88.67;43.90;;;-2.90;99.90;;;;;;5096137;28;20162;-64
2022/01/22 02:27:14;;;;;;;89.83;41.93;;;-2.90;99.90;;;;;;5078016;28;20497;-61
2022/01/22 02:29:40;;;;;;;98.77;42.13;;;-2.80;99.90;;;;;;5077916;28;20039;-64
2022/01/22 02:34:58;;;;;;;69.23;33.67;;;-2.70;99.90;;;;;;5096431;28;20043;-61
2022/01/22 02:37:30;;;;;;;76.67;33.07;;;-2.70;99.90;;;;;;5095889;28;20477;-62
2022/01/22 02:40:06;;;;;;;71.53;31.67;;;-2.60;99.90;;;;;;5094917;28;20031;-63
2022/01/22 02:42:34;;;;;;;77.37;28.37;;;-2.50;99.90;;;;;;5095260;28;20079;-65
2022/01/22 02:45:10;;;;;;;78.93;29.37;;;-2.20;99.90;;;;;;5094911;28;20465;-63
2022/01/22 02:47:37;;;;;;;56.70;25.63;;;-2.10;99.90;;;;;;5093037;28;20482;-64
2022/01/22 02:50:05;;;;;;;60.73;28.53;;;-2.10;99.90;;;;;;5094380;28;20213;-64
2022/01/22 02:52:31;;;;;;;57.50;25.73;;;-2.10;99.90;;;;;;5093926;28;20024;-63
2022/01/22 02:54:57;;;;;;;53.80;25.00;;;-2.00;99.90;;;;;;5093115;28;20028;-63
2022/01/22 02:57:25;;;;;;;63.80;23.47;;;-1.90;99.90;;;;;;5091807;28;20047;-62
2022/01/22 02:59:51;;;;;;;57.03;25.63;;;-1.90;99.90;;;;;;5093881;28;20032;-63
2022/01/22 03:02:17;;;;;;;51.80;22.90;;;-1.80;99.90;;;;;;5079355;28;20036;-63
2022/01/22 03:04:44;;;;;;;53.20;23.30;;;-1.60;99.90;;;;;;5077871;28;20131;-63
2022/01/22 03:07:10;;;;;;;64.93;22.73;;;-1.50;99.90;;;;;;5060775;28;20039;-63
2022/01/22 03:09:41;;;;;;;51.03;22.03;;;-1.30;99.90;;;;;;5073202;28;20104;-63
2022/01/22 03:27:48;;;;;;;33.63;15.67;;;-0.30;99.90;;;;;;5073956;28;20036;-62
2022/01/22 03:30:15;;;;;;;44.95;16.65;;;-0.20;99.90;;;;;;5055065;28;20151;-63
2022/01/22 03:32:45;;;;;;;41.13;14.57;;;-0.10;99.90;;;;;;5055264;28;20028;-63
2022/01/22 03:35:24;;;;;;;38.47;16.02;;;0.00;99.90;;;;;;5053007;28;20089;-62
2022/01/22 03:37:54;;;;;;;42.65;16.15;;;0.10;99.90;;;;;;5073440;28;20435;-67
2022/01/22 03:40:22;;;;;;;42.05;15.60;;;0.20;99.90;;;;;;5073379;28;20407;-64
2022/01/22 03:42:49;;;;;;;43.10;17.55;;;0.30;99.90;;;;;;5073963;28;20429;-63
2022/01/22 03:45:16;;;;;;;46.50;16.60;;;0.40;99.90;;;;;;5055898;28;20028;-64
2022/01/22 03:47:43;;;;;;;31.55;15.93;;;0.50;99.90;;;;;;5073737;28;20040;-63
2022/01/22 03:50:11;;;;;;;39.97;17.38;;;0.60;99.90;;;;;;5055545;28;20036;-62
2022/01/22 03:52:37;;;;;;;47.88;19.83;;;0.80;99.90;;;;;;5083372;28;20604;-64
2022/01/22 03:55:08;;;;;;;54.55;21.70;;;0.90;99.90;;;;;;5071416;28;20060;-63
2022/01/22 03:57:34;;;;;;;64.25;29.05;;;1.10;99.90;;;;;;5073626;28;20079;-64
2022/01/22 04:00:01;;;;;;;68.55;32.80;;;1.20;99.90;;;;;;5072382;28;20039;-65
2022/01/22 04:05:24;;;;;;;55.13;26.63;;;1.50;99.90;;;;;;5072644;28;20098;-65
2022/01/22 04:10:35;;;;;;;73.47;40.20;;;1.70;99.90;;;;;;5070652;28;20035;-65
2022/01/22 04:13:10;;;;;;;70.95;42.10;;;1.80;99.90;;;;;;5072326;28;20032;-65
2022/01/22 04:15:39;;;;;;;58.05;30.92;;;2.00;99.90;;;;;;5065827;28;20033;-63
2022/01/22 04:26:36;;;;;;;31.65;15.50;;;2.60;99.90;;;;;;5068763;28;20085;-64
2022/01/22 04:29:03;;;;;;;33.33;15.77;;;2.80;99.90;;;;;;5065761;28;20367;-63
2022/01/22 04:31:29;;;;;;;35.97;15.35;;;3.00;99.90;;;;;;5072200;28;20044;-64
2022/01/22 04:33:55;;;;;;;30.17;14.18;;;3.10;99.90;;;;;;5057981;28;20043;-63
2022/01/22 04:36:21;;;;;;;33.08;15.20;;;3.20;99.90;;;;;;5037938;28;20059;-63
2022/01/22 04:38:48;;;;;;;35.33;13.30;;;3.20;99.90;;;;;;5062524;28;20040;-64
2022/01/22 04:41:14;;;;;;;30.63;13.27;;;3.40;99.40;;;;;;5039915;28;20090;-63
2022/01/22 04:43:42;;;;;;;29.83;12.18;;;3.50;96.60;;;;;;5077990;28;20553;-66
2022/01/22 04:46:20;;;;;;;30.98;14.57;;;3.50;97.30;;;;;;5074692;28;20017;-64
2022/01/22 04:57:00;;;;;;;34.55;15.40;;;3.90;93.60;;;;;;5069732;28;20047;-64
2022/01/22 04:59:26;;;;;;;41.42;17.70;;;3.90;94.00;;;;;;5065076;28;20518;-63
2022/01/22 05:01:52;;;;;;;30.27;14.85;;;4.00;94.30;;;;;;5079057;28;20044;-64
2022/01/22 05:04:18;;;;;;;27.27;14.10;;;4.10;90.20;;;;;;5088543;28;20036;-63
2022/01/22 05:06:44;;;;;;;29.70;15.82;;;4.30;87.70;;;;;;5104543;28;20504;-63
2022/01/22 05:09:10;;;;;;;30.90;15.63;;;4.40;90.10;;;;;;5073645;28;20509;-65
2022/01/22 05:11:36;;;;;;;35.42;17.10;;;4.50;87.80;;;;;;5090887;28;20032;-64
2022/01/22 05:14:02;;;;;;;30.98;15.80;;;4.70;83.90;;;;;;5074839;28;20039;-64
2022/01/22 05:16:29;;;;;;;29.88;16.52;;;4.70;82.60;;;;;;5072121;28;20036;-64
2022/01/22 05:19:00;;;;;;;32.08;16.17;;;5.00;74.30;;;;;;5078534;28;20028;-64
2022/01/22 05:21:29;;;;;;;34.55;16.15;;;5.10;76.80;;;;;;5090194;28;20039;-63
2022/01/22 05:23:58;;;;;;;35.05;16.13;;;5.20;74.90;;;;;;5072698;28;20127;-63
2022/01/22 05:29:30;;;;;;;36.10;15.60;;;5.50;69.60;;;;;;5089651;28;20028;-64
2022/01/22 05:37:25;;;;;;;36.85;19.65;;;5.90;66.30;;;;;;5090562;28;20390;-64
2022/01/22 05:39:51;;;;;;;41.28;21.10;;;6.00;65.40;;;;;;5091600;28;20127;-64
2022/01/22 05:42:18;;;;;;;39.40;18.00;;;6.00;64.30;;;;;;5070673;28;20036;-64
2022/01/22 05:44:44;;;;;;;29.88;18.30;;;6.10;61.30;;;;;;5090619;28;20043;-64
2022/01/22 05:47:11;;;;;;;27.52;11.68;;;6.30;59.80;;;;;;5090831;28;20032;-63
2022/01/22 05:49:41;;;;;;;34.55;15.32;;;6.50;54.90;;;;;;5088796;28;20432;-63
2022/01/22 05:52:10;;;;;;;21.70;10.60;;;6.60;58.50;;;;;;5071873;28;20040;-64
2022/01/22 06:00:05;;;;;;;14.30;6.50;;;6.90;52.30;;;;;;5087684;28;20138;-64
2022/01/22 06:02:31;;;;;;;11.40;6.35;;;7.20;49.40;;;;;;5089478;28;20077;-65
2022/01/22 06:04:57;;;;;;;11.68;5.15;;;7.30;49.90;;;;;;5089394;28;20036;-65
2022/01/22 06:07:24;;;;;;;9.02;4.65;;;7.30;47.50;;;;;;5069202;28;20115;-64
2022/01/22 06:12:57;;;;;;;15.95;7.70;;;7.30;46.10;;;;;;5088716;28;20083;-64
2022/01/22 06:15:23;;;;;;;18.67;8.10;;;7.40;45.30;;;;;;5071253;28;20124;-63
2022/01/22 06:17:49;;;;;;;18.73;9.77;;;7.40;46.60;;;;;;5071448;28;20032;-63
2022/01/22 06:20:16;;;;;;;21.98;12.77;;;7.50;45.90;;;;;;5091736;28;20035;-64
2022/01/22 06:22:43;;;;;;;23.27;14.23;;;7.70;46.70;;;;;;5091033;28;20024;-64
2022/01/22 06:25:09;;;;;;;27.50;16.02;;;7.70;45.90;;;;;;5070341;28;20033;-63
2022/01/22 06:27:35;;;;;;;24.30;14.57;;;7.90;45.60;;;;;;5088265;28;20039;-64
2022/01/22 06:30:03;;;;;;;23.02;12.85;;;8.00;46.40;;;;;;5088770;28;20024;-62
2022/01/22 06:32:29;;;;;;;18.50;8.60;;;8.00;46.80;;;;;;5088722;28;20435;-64
2022/01/22 06:34:55;;;;;;;17.00;9.18;;;7.80;45.90;;;;;;5089652;28;20032;-66
2022/01/22 06:37:21;;;;;;;23.63;9.30;;;8.00;45.10;;;;;;5090956;28;20036;-63
2022/01/22 06:41:44;;;;;;;14.23;8.05;;;8.10;46.10;;;;;;5091484;28;20124;-63
2022/01/22 06:42:48;;;;;;;13.32;8.23;;;8.10;45.90;;;;;;5087088;28;20039;-63
2022/01/22 06:45:14;;;;;;;14.88;6.80;;;8.00;44.70;;;;;;5085178;28;20063;-62
2022/01/22 06:47:40;;;;;;;12.52;5.97;;;7.80;45.00;;;;;;5091160;28;20119;-64
2022/01/22 06:50:08;;;;;;;12.05;5.43;;;7.90;45.10;;;;;;5091518;28;20586;-64
2022/01/22 06:52:34;;;;;;;11.82;5.55;;;7.80;45.60;;;;;;5073524;28;20087;-63
2022/01/22 06:55:00;;;;;;;10.43;5.22;;;8.00;46.80;;;;;;5091875;28;20047;-63
2022/01/22 06:57:26;;;;;;;14.45;4.93;;;7.90;46.30;;;;;;5076598;28;20039;-63
2022/01/22 06:59:52;;;;;;;15.63;5.50;;;7.90;44.80;;;;;;5094309;28;20426;-64
2022/01/22 07:02:19;;;;;;;14.13;6.75;;;7.80;47.00;;;;;;5094704;28;20089;-63
2022/01/22 07:04:45;;;;;;;15.50;8.80;;;7.80;47.60;;;;;;5076434;28;20037;-63
2022/01/22 07:07:12;;;;;;;19.23;8.63;;;7.80;47.80;;;;;;5092467;28;20039;-64
2022/01/22 07:09:38;;;;;;;18.38;8.40;;;7.70;49.50;;;;;;5093754;28;20024;-64
2022/01/22 07:12:06;;;;;;;15.75;8.35;;;7.60;48.30;;;;;;5096667;28;20035;-64
2022/01/22 07:14:32;;;;;;;14.48;7.68;;;7.30;49.10;;;;;;5092532;28;20028;-64
2022/01/22 07:16:59;;;;;;;16.45;8.35;;;7.40;50.70;;;;;;5090656;28;20123;-64
2022/01/22 07:19:25;;;;;;;23.35;9.93;;;7.40;51.70;;;;;;5089136;28;20063;-64
2022/01/22 07:25:04;;;;;;;19.45;11.75;;;7.00;52.00;;;;;;5090041;28;20135;-64
2022/01/22 07:27:30;;;;;;;20.70;12.85;;;6.80;53.80;;;;;;5092368;28;20035;-63
2022/01/22 07:29:56;;;;;;;21.40;12.30;;;6.90;54.90;;;;;;5090203;28;20102;-63
2022/01/22 07:32:34;;;;;;;24.38;12.65;;;6.90;54.60;;;;;;5092018;28;20478;-63
2022/01/22 07:35:00;;;;;;;22.33;11.48;;;6.80;56.00;;;;;;5092650;28;20444;-64
2022/01/22 07:37:26;;;;;;;24.45;12.65;;;6.70;56.30;;;;;;5093903;28;20039;-64
2022/01/22 07:39:52;;;;;;;23.17;11.55;;;6.60;57.70;;;;;;5092463;28;20036;-63
2022/01/22 07:42:18;;;;;;;18.85;11.20;;;6.50;59.30;;;;;;5091688;28;20241;-64
2022/01/22 07:45:10;;;;;;;21.25;12.07;;;6.40;59.80;;;;;;5074801;28;20136;-66
2022/01/22 07:47:37;;;;;;;21.50;11.80;;;6.30;61.30;;;;;;5091022;28;20032;-65
2022/01/22 07:50:05;;;;;;;24.52;13.20;;;6.20;61.00;;;;;;5091234;28;20028;-64
2022/01/22 07:52:31;;;;;;;27.23;13.85;;;6.40;62.30;;;;;;5090430;28;20024;-63
2022/01/22 07:54:57;;;;;;;27.55;16.63;;;6.50;63.20;;;;;;5073755;28;20040;-65
2022/01/22 07:57:23;;;;;;;28.35;16.17;;;6.30;65.30;;;;;;5090619;28;20040;-65
2022/01/22 07:59:49;;;;;;;25.77;15.27;;;6.20;67.50;;;;;;5088238;28;20036;-63
2022/01/22 08:02:16;;;;;;;27.38;15.77;;;6.10;69.70;;;;;;5094738;28;20044;-61
2022/01/22 08:04:42;;;;;;;32.03;16.25;;;6.00;73.90;;;;;;5101005;28;20498;-62
2022/01/22 08:07:08;;;;;;;30.83;16.45;;;6.00;75.30;;;;;;5091313;28;20024;-62
2022/01/22 08:09:35;;;;;;;27.98;16.13;;;6.20;77.00;;;;;;5089018;28;20039;-62
2022/01/22 08:12:01;;;;;;;29.70;16.80;;;6.20;79.00;;;;;;5092209;28;20347;-63
2022/01/22 08:14:28;;;;;;;25.38;15.93;;;6.20;83.00;;;;;;5094388;28;20028;-61
2022/01/22 08:16:54;;;;;;;28.52;16.40;;;6.10;84.70;;;;;;5086871;28;20467;-63
2022/01/22 08:19:20;;;;;;;30.65;17.33;;;6.10;88.80;;;;;;5089945;28;20114;-63
2022/01/22 08:21:47;;;;;;;35.90;19.75;;;6.00;92.50;;;;;;5070584;28;20489;-61
2022/01/22 08:24:15;;;;;;;33.28;20.70;;;6.00;99.90;;;;;;5074428;28;20510;-62
2022/01/22 08:26:50;;;;;;;38.00;21.70;;;6.00;99.90;;;;;;5072170;28;20028;-61
2022/01/22 08:29:16;;;;;;;27.27;17.25;;;5.80;99.90;;;;;;5072285;28;20486;-62
2022/01/22 08:32:03;;;;;;;27.55;16.25;;;5.60;99.90;;;;;;5072449;28;20089;-62
2022/01/22 08:37:14;;;;;;;28.70;16.15;;;5.50;99.90;;;;;;5090504;28;20398;-62
2022/01/22 08:39:40;;;;;;;26.85;18.05;;;5.30;99.90;;;;;;5089335;28;20111;-62
2022/01/22 08:42:07;;;;;;;26.60;17.73;;;5.20;99.90;;;;;;5089953;28;20037;-64
2022/01/22 08:44:33;;;;;;;34.13;20.02;;;5.10;99.90;;;;;;5071746;28;20162;-62
2022/01/22 08:46:59;;;;;;;36.55;21.23;;;5.20;99.90;;;;;;5069251;28;20123;-63
2022/01/22 08:49:28;;;;;;;34.13;21.30;;;5.10;99.90;;;;;;5091175;28;20028;-62
2022/01/22 08:51:54;;;;;;;42.97;23.10;;;5.00;99.90;;;;;;5090932;28;20044;-63
2022/01/22 08:54:20;;;;;;;41.22;23.40;;;5.00;99.90;;;;;;5090176;28;20039;-63
2022/01/22 08:56:47;;;;;;;45.33;23.45;;;5.10;99.90;;;;;;5072398;28;20131;-62
2022/01/22 08:59:13;;;;;;;37.35;22.92;;;5.10;99.90;;;;;;5070889;28;20069;-61
2022/01/22 09:01:41;;;;;;;38.63;23.67;;;5.10;99.90;;;;;;5088021;28;20040;-63
2022/01/22 09:04:07;;;;;;;40.53;23.38;;;5.00;99.90;;;;;;5091571;28;20128;-62
2022/01/22 09:06:33;;;;;;;42.50;24.90;;;4.80;99.90;;;;;;5089088;28;20025;-63
2022/01/22 09:09:09;;;;;;;46.90;26.00;;;4.90;99.90;;;;;;5092051;28;20034;-63
2022/01/22 09:11:36;;;;;;;46.35;25.52;;;4.90;99.90;;;;;;5070092;28;20044;-62
2022/01/22 09:14:04;;;;;;;46.22;26.70;;;4.80;99.90;;;;;;5095359;28;20180;-61
2022/01/22 09:16:31;;;;;;;39.00;25.98;;;4.70;99.90;;;;;;5074222;28;20129;-61
2022/01/22 09:19:06;;;;;;;41.55;26.00;;;4.60;99.90;;;;;;5077918;28;20493;-62
2022/01/22 09:21:38;;;;;;;47.67;28.80;;;4.60;99.90;;;;;;5073013;28;20028;-63
2022/01/22 09:24:04;;;;;;;42.60;25.42;;;4.30;99.90;;;;;;5088902;28;20032;-62
2022/01/22 09:26:31;;;;;;;42.30;26.38;;;4.30;99.90;;;;;;5089656;28;20043;-64
2022/01/22 09:28:59;;;;;;;44.97;26.95;;;4.20;99.90;;;;;;5090267;28;20028;-62
2022/01/22 09:31:27;;;;;;;45.88;26.38;;;4.20;99.90;;;;;;5090548;28;20458;-62
2022/01/22 09:33:56;;;;;;;45.10;26.15;;;4.20;99.90;;;;;;5090689;28;20493;-61
2022/01/22 09:36:23;;;;;;;46.08;24.88;;;4.10;99.90;;;;;;5088749;28;20063;-61
2022/01/22 09:38:51;;;;;;;44.63;24.58;;;3.90;99.90;;;;;;5071749;28;20052;-63
2022/01/22 09:41:18;;;;;;;40.97;24.92;;;3.80;99.90;;;;;;5071224;28;20032;-62
2022/01/22 09:43:45;;;;;;;47.85;27.65;;;3.80;99.90;;;;;;5071662;28;20401;-63
2022/01/22 09:46:12;;;;;;;41.88;25.90;;;3.90;99.90;;;;;;5090496;28;20028;-62
2022/01/22 09:48:43;;;;;;;38.80;23.92;;;3.80;99.90;;;;;;5090410;28;20024;-62
2022/01/22 09:51:11;;;;;;;44.25;24.00;;;3.80;99.90;;;;;;5090287;28;20077;-61
2022/01/22 09:53:42;;;;;;;41.63;21.67;;;3.80;99.90;;;;;;5088054;28;20097;-62
2022/01/22 09:56:09;;;;;;;35.42;21.38;;;3.70;99.90;;;;;;5072368;28;20032;-62
2022/01/22 09:58:35;;;;;;;37.03;21.58;;;3.50;99.90;;;;;;5086839;28;20043;-62
2022/01/22 10:01:21;;;;;;;38.10;19.55;;;3.50;99.90;;;;;;5084790;28;20127;-62
2022/01/22 10:03:48;;;;;;;38.58;22.55;;;3.30;99.90;;;;;;5082332;28;20029;-62
2022/01/22 10:06:19;;;;;;;35.13;20.27;;;3.30;99.90;;;;;;5081565;28;20055;-63
2022/01/22 10:09:34;;;;;;;40.80;21.55;;;3.20;99.90;;;;;;5074845;28;20036;-63
2022/01/22 10:12:16;;;;;;;39.00;21.52;;;3.20;99.90;;;;;;5079259;28;20024;-62
2022/01/22 10:15:05;;;;;;;39.60;21.83;;;3.20;99.90;;;;;;5074141;28;20029;-62
2022/01/22 10:17:42;;;;;;;32.15;18.98;;;3.10;99.90;;;;;;5058664;28;20036;-62
2022/01/22 10:20:24;;;;;;;39.25;18.27;;;3.00;99.90;;;;;;5073650;28;20039;-61
2022/01/22 10:23:08;;;;;;;37.20;20.20;;;3.10;99.90;;;;;;5067379;28;20039;-61
2022/01/22 10:25:38;;;;;;;38.22;20.75;;;3.00;99.90;;;;;;5084940;28;20118;-61
2022/01/22 10:28:13;;;;;;;36.65;22.63;;;3.00;99.90;;;;;;5062236;28;20033;-62
2022/01/22 10:30:43;;;;;;;40.72;21.80;;;2.90;99.90;;;;;;5077886;28;20501;-64
2022/01/22 10:35:47;;;;;;;30.20;19.40;;;2.50;99.90;;;;;;5075218;28;20074;-64
2022/01/22 10:38:15;;;;;;;31.10;20.20;;;2.50;99.90;;;;;;5081650;28;20042;-63
2022/01/22 10:40:42;;;;;;;38.78;21.30;;;2.60;99.90;;;;;;5080197;28;20032;-63
2022/01/22 10:43:33;;;;;;;38.25;20.67;;;2.60;99.90;;;;;;5056485;28;20028;-63
2022/01/22 10:46:07;;;;;;;35.72;21.95;;;2.60;99.90;;;;;;5077501;28;20119;-63
2022/01/22 10:48:38;;;;;;;33.75;19.35;;;2.60;99.90;;;;;;5080403;28;20068;-62
2022/01/22 10:51:14;;;;;;;36.00;20.27;;;2.60;99.90;;;;;;5076866;28;20109;-62
2022/01/22 10:53:50;;;;;;;33.40;19.80;;;2.60;99.90;;;;;;5073362;28;20245;-62
2022/01/22 10:56:19;;;;;;;35.05;20.02;;;2.60;99.90;;;;;;5084102;28;20063;-62
2022/01/22 10:58:54;;;;;;;36.28;22.23;;;2.60;99.90;;;;;;5076008;28;20503;-61
2022/01/22 11:01:21;;;;;;;37.53;22.17;;;2.50;99.90;;;;;;5079394;28;20044;-63
2022/01/22 11:04:00;;;;;;;40.75;23.40;;;2.40;99.90;;;;;;5082887;28;20040;-63
2022/01/22 11:06:27;;;;;;;37.10;22.30;;;2.30;99.90;;;;;;5060077;28;20033;-63
2022/01/22 11:08:55;;;;;;;40.55;24.38;;;2.30;99.90;;;;;;5067569;28;20027;-62
2022/01/22 11:11:23;;;;;;;42.75;25.30;;;2.20;99.90;;;;;;5073894;28;20386;-62
2022/01/22 11:13:49;;;;;;;42.25;25.90;;;2.30;99.90;;;;;;5057132;28;20056;-61
2022/01/22 11:16:17;;;;;;;46.25;27.05;;;2.20;99.90;;;;;;5056770;28;20029;-61
2022/01/22 11:18:48;;;;;;;46.10;26.88;;;2.20;99.90;;;;;;5074737;28;20036;-64
2022/01/22 11:21:16;;;;;;;42.67;25.90;;;2.10;99.90;;;;;;5056647;28;20434;-62
2022/01/22 11:23:44;;;;;;;46.15;27.55;;;2.00;99.90;;;;;;5070127;28;20119;-63
2022/01/22 11:26:10;;;;;;;50.30;28.83;;;2.00;99.90;;;;;;5074895;28;20055;-62
2022/01/22 11:28:39;;;;;;;49.80;28.58;;;2.00;99.90;;;;;;5055434;28;20060;-62
2022/01/22 11:31:07;;;;;;;49.78;28.98;;;1.90;99.90;;;;;;5071637;28;20052;-62
2022/01/22 11:33:39;;;;;;;48.65;30.83;;;1.90;99.90;;;;;;5054830;28;20490;-61
2022/01/22 11:36:25;;;;;;;49.88;28.92;;;1.90;99.90;;;;;;5055816;28;20087;-62
2022/01/22 11:38:57;;;;;;;48.33;28.88;;;1.80;99.90;;;;;;5071732;28;20037;-61
2022/01/22 11:41:24;;;;;;;46.85;29.33;;;1.70;99.90;;;;;;5057282;28;20033;-63
2022/01/22 11:46:35;;;;;;;51.50;30.85;;;1.60;99.90;;;;;;5073093;28;20155;-64
2022/01/22 11:49:25;;;;;;;51.25;28.73;;;1.60;99.90;;;;;;5073275;28;20029;-64
2022/01/22 11:52:10;;;;;;;49.25;30.52;;;1.70;99.90;;;;;;5072671;28;20032;-63
2022/01/22 11:55:02;;;;;;;56.28;32.35;;;1.60;99.90;;;;;;5071830;28;20037;-63
2022/01/22 11:57:30;;;;;;;54.35;31.13;;;1.70;99.90;;;;;;5052354;28;20033;-64
2022/01/22 12:00:21;;;;;;;49.13;27.40;;;1.70;99.90;;;;;;5083125;28;20113;-63
2022/01/22 12:03:09;;;;;;;50.28;30.25;;;1.70;99.90;;;;;;5079874;28;20043;-63
2022/01/22 12:05:56;;;;;;;44.55;26.88;;;1.60;99.90;;;;;;5081092;28;20059;-64
2022/01/22 12:08:23;;;;;;;49.20;27.25;;;1.60;99.90;;;;;;5083368;28;20062;-64
2022/01/22 12:16:37;;;;;;;52.65;30.27;;;1.50;99.90;;;;;;5081247;28;20112;-63
2022/01/22 12:19:04;;;;;;;57.83;32.47;;;1.50;99.90;;;;;;5083139;28;20035;-62
2022/01/22 12:21:36;;;;;;;47.63;29.30;;;1.50;99.90;;;;;;5065640;28;20032;-63
2022/01/22 12:24:10;;;;;;;51.85;29.63;;;1.40;99.90;;;;;;5082039;28;20054;-64
2022/01/22 12:26:42;;;;;;;55.00;29.65;;;1.50;99.90;;;;;;5065737;28;20024;-64
2022/01/22 12:29:28;;;;;;;56.67;31.23;;;1.40;99.90;;;;;;5080454;28;20541;-64
2022/01/22 12:32:14;;;;;;;54.70;30.15;;;1.40;99.90;;;;;;5081695;28;20039;-62
2022/01/22 12:34:59;;;;;;;55.00;29.58;;;1.50;99.90;;;;;;5062818;28;20127;-63
2022/01/22 12:37:28;;;;;;;56.80;31.92;;;1.60;99.90;;;;;;5049466;28;20481;-62
2022/01/22 12:39:56;;;;;;;63.35;33.33;;;1.60;99.90;;;;;;5073800;28;20123;-63
2022/01/22 12:42:45;;;;;;;65.65;35.05;;;1.50;99.90;;;;;;5073563;28;20500;-62
2022/01/22 12:45:12;;;;;;;65.03;39.08;;;1.40;99.90;;;;;;5090589;28;20024;-62
2022/01/22 12:47:47;;;;;;;66.22;38.15;;;1.40;99.90;;;;;;5077852;28;20032;-63
2022/01/22 12:50:14;;;;;;;58.70;35.80;;;1.40;99.90;;;;;;5081040;28;20031;-63
2022/01/22 12:52:45;;;;;;;68.60;40.88;;;1.30;99.90;;;;;;5083771;28;20020;-63
2022/01/22 12:55:25;;;;;;;66.93;40.55;;;1.30;99.90;;;;;;5073049;28;20029;-64
2022/01/22 12:57:52;;;;;;;66.63;39.25;;;1.20;99.90;;;;;;5071427;28;20036;-63
2022/01/22 13:00:20;;;;;;;66.45;41.28;;;1.10;99.90;;;;;;5067447;28;20436;-63
2022/01/22 13:02:57;;;;;;;72.43;43.30;;;1.10;99.90;;;;;;5070661;28;20032;-63
2022/01/22 13:05:25;;;;;;;91.38;51.83;;;1.10;99.90;;;;;;5076074;28;20315;-63
2022/01/22 13:07:56;;;;;;;83.55;51.65;;;1.40;99.90;;;;;;5067390;28;20089;-63
2022/01/22 13:10:31;;;;;;;86.32;50.97;;;1.20;99.90;;;;;;5072087;28;20021;-63
2022/01/22 13:12:57;;;;;;;92.53;52.83;;;1.10;99.90;;;;;;5076584;28;20028;-64
2022/01/22 13:15:27;;;;;;;91.05;54.88;;;1.00;99.90;;;;;;5071123;28;20033;-63
2022/01/22 13:18:02;;;;;;;92.18;53.20;;;0.90;99.90;;;;;;5073100;28;20398;-63
2022/01/22 13:20:34;;;;;;;93.63;54.63;;;0.90;99.90;;;;;;5054057;28;20386;-63
2022/01/22 13:23:21;;;;;;;91.78;52.88;;;0.90;99.90;;;;;;5052848;28;20032;-63
2022/01/22 13:25:47;;;;;;;92.70;52.65;;;0.90;99.90;;;;;;5071364;28;20290;-64
2022/01/22 13:28:15;;;;;;;85.10;52.40;;;1.00;99.90;;;;;;5071761;28;20082;-64
2022/01/22 13:30:49;;;;;;;90.03;52.75;;;1.00;99.90;;;;;;5079390;28;20024;-65
2022/01/22 13:34:15;;;;;;;95.10;52.15;;;1.00;99.90;;;;;;5077255;28;20536;-62
2022/01/22 13:49:40;;;;;;;168.35;103.40;;;1.00;99.90;;;;;;5078136;28;20027;-63
2022/01/22 13:52:17;;;;;;;178.88;106.93;;;1.10;99.90;;;;;;5064968;28;20024;-64
2022/01/22 13:54:52;;;;;;;195.57;121.15;;;0.90;99.90;;;;;;5082612;28;20025;-64
2022/01/22 13:57:28;;;;;;;195.27;123.38;;;0.80;99.90;;;;;;5078568;28;20150;-63
2022/01/22 13:59:57;;;;;;;218.60;133.70;;;0.70;99.90;;;;;;5086449;28;20466;-64
2022/01/22 14:02:52;;;;;;;220.68;135.15;;;0.80;99.90;;;;;;5074878;28;20133;-64
2022/01/22 14:05:25;;;;;;;239.30;144.35;;;0.80;99.90;;;;;;5085588;28;20024;-64
2022/01/22 14:08:00;;;;;;;228.90;139.82;;;0.70;99.90;;;;;;5081855;28;20048;-63
2022/01/22 14:10:27;;;;;;;211.05;125.97;;;0.80;99.90;;;;;;5084948;28;20024;-63
2022/01/22 14:12:59;;;;;;;217.27;133.88;;;0.70;99.90;;;;;;5068199;28;20032;-63
2022/01/22 14:15:40;;;;;;;212.25;127.15;;;0.70;99.90;;;;;;5086687;28;20125;-63
2022/01/22 14:18:20;;;;;;;202.25;120.30;;;0.80;99.90;;;;;;5068051;28;20513;-64
2022/01/22 14:20:47;;;;;;;192.93;112.05;;;0.80;99.90;;;;;;5085764;28;20028;-64
2022/01/22 14:23:32;;;;;;;186.52;114.35;;;0.90;99.90;;;;;;5084374;28;20378;-64
2022/01/22 14:25:59;;;;;;;191.27;113.30;;;0.80;99.90;;;;;;5083598;28;20356;-65
2022/01/22 14:28:51;;;;;;;189.60;113.25;;;1.00;99.90;;;;;;5065665;28;20158;-65
2022/01/22 14:31:23;;;;;;;199.13;114.93;;;0.90;99.90;;;;;;5083387;28;20049;-63
2022/01/22 14:33:50;;;;;;;196.98;118.15;;;1.00;99.90;;;;;;5081090;28;20032;-65
2022/01/22 14:36:22;;;;;;;203.98;117.28;;;1.00;99.90;;;;;;5084782;28;20053;-63
2022/01/22 14:38:59;;;;;;;192.25;110.53;;;0.90;99.90;;;;;;5085527;28;20028;-65
2022/01/22 14:44:27;;;;;;;253.40;147.50;;;1.10;99.90;;;;;;5081485;28;20539;-64
2022/01/22 14:46:57;;;;;;;281.00;159.18;;;1.20;99.90;;;;;;5081986;28;20466;-64
2022/01/22 14:49:52;;;;;;;274.83;164.88;;;1.10;99.90;;;;;;5060745;28;20533;-64
2022/01/22 14:52:25;;;;;;;302.30;179.00;;;0.90;99.90;;;;;;5075553;28;20025;-64